createdAt,value
2022-12-12T00:00:46.167Z,93.70
2022-12-12T00:03:13.264Z,93.70
2022-12-12T00:05:40.343Z,93.70
2022-12-12T00:08:07.305Z,93.80
2022-12-12T00:10:34.340Z,93.70
2022-12-12T00:13:01.249Z,93.70
2022-12-12T00:15:29.318Z,93.70
2022-12-12T00:17:56.594Z,93.70
2022-12-12T00:20:23.415Z,93.90
2022-12-12T00:22:50.240Z,93.70
2022-12-12T00:25:17.098Z,93.80
2022-12-12T00:27:44.464Z,93.70
2022-12-12T00:30:11.555Z,93.70
2022-12-12T00:32:38.389Z,93.70
2022-12-12T00:35:05.432Z,93.60
2022-12-12T00:37:32.263Z,93.50
2022-12-12T00:39:59.333Z,93.50
2022-12-12T00:42:27.444Z,93.70
2022-12-12T00:44:54.233Z,93.50
2022-12-12T00:47:21.164Z,93.50
2022-12-12T00:49:48.003Z,93.50
2022-12-12T00:52:14.828Z,93.40
2022-12-12T00:54:41.617Z,93.30
2022-12-12T00:57:08.463Z,93.30
2022-12-12T00:59:35.269Z,93.30
2022-12-12T01:05:07.435Z,93.20
2022-12-12T01:07:34.288Z,93.30
2022-12-12T01:10:01.103Z,93.40
2022-12-12T01:12:28.086Z,93.30
2022-12-12T01:14:54.901Z,93.30
2022-12-12T01:17:21.991Z,93.30
2022-12-12T01:19:48.777Z,93.30
2022-12-12T01:22:15.735Z,93.30
2022-12-12T01:24:42.560Z,93.40
2022-12-12T01:27:09.399Z,93.20
2022-12-12T01:32:40.439Z,93.30
2022-12-12T01:35:08.468Z,93.30
2022-12-12T01:40:39.431Z,93.40
2022-12-12T01:43:09.407Z,93.40
2022-12-12T01:45:54.575Z,93.30
2022-12-12T01:48:21.507Z,93.40
2022-12-12T01:50:48.318Z,93.30
2022-12-12T01:56:19.551Z,93.30
2022-12-12T01:58:46.740Z,93.30
2022-12-12T02:01:13.609Z,93.20
2022-12-12T02:03:40.509Z,93.20
2022-12-12T02:06:08.369Z,93.50
2022-12-12T02:08:35.139Z,93.40
2022-12-12T02:11:02.050Z,93.30
2022-12-12T02:13:29.636Z,93.40
2022-12-12T02:15:56.533Z,93.40
2022-12-12T02:18:23.409Z,93.30
2022-12-12T02:21:09.074Z,93.50
2022-12-12T02:23:38.648Z,93.30
2022-12-12T02:26:08.507Z,93.40
2022-12-12T02:28:53.449Z,93.40
2022-12-12T02:31:46.381Z,93.40
2022-12-12T02:34:16.044Z,93.40
2022-12-12T02:37:09.394Z,93.20
2022-12-12T02:39:39.694Z,93.30
2022-12-12T02:42:12.064Z,93.50
2022-12-12T02:44:38.890Z,93.40
2022-12-12T02:47:10.174Z,93.30
2022-12-12T02:49:38.803Z,93.30
2022-12-12T02:52:05.743Z,93.40
2022-12-12T02:54:32.657Z,93.30
2022-12-12T02:57:00.093Z,93.30
2022-12-12T02:59:37.066Z,93.00
2022-12-12T03:02:12.859Z,93.40
2022-12-12T03:05:17.203Z,93.30
2022-12-12T03:08:02.375Z,93.10
2022-12-12T03:10:41.272Z,93.10
2022-12-12T03:13:08.159Z,93.00
2022-12-12T03:16:01.418Z,92.90
2022-12-12T03:18:31.695Z,93.00
2022-12-12T03:21:02.037Z,93.00
2022-12-12T03:23:29.723Z,93.10
2022-12-12T03:26:01.368Z,93.00
2022-12-12T03:28:32.168Z,92.90
2022-12-12T03:30:59.453Z,92.90
2022-12-12T03:33:45.446Z,93.00
2022-12-12T03:36:12.334Z,92.90
2022-12-12T03:38:43.034Z,92.80
2022-12-12T03:41:12.732Z,92.80
2022-12-12T03:43:44.691Z,92.80
2022-12-12T03:46:14.570Z,93.00
2022-12-12T03:48:43.072Z,92.90
2022-12-12T03:51:23.916Z,92.90
2022-12-12T03:53:57.242Z,92.70
2022-12-12T03:56:33.212Z,92.70
2022-12-12T03:59:01.330Z,92.80
2022-12-12T04:01:29.783Z,92.70
2022-12-12T04:03:59.634Z,92.70
2022-12-12T04:06:32.029Z,92.90
2022-12-12T04:09:18.684Z,92.90
2022-12-12T04:12:24.602Z,92.90
2022-12-12T04:14:54.492Z,92.80
2022-12-12T04:17:22.312Z,92.80
2022-12-12T04:20:15.261Z,92.80
2022-12-12T04:23:03.451Z,93.00
2022-12-12T04:25:30.333Z,93.00
2022-12-12T04:27:57.730Z,93.00
2022-12-12T04:30:25.029Z,92.90
2022-12-12T04:32:54.661Z,93.00
2022-12-12T04:35:21.435Z,93.00
2022-12-12T04:37:49.094Z,92.90
2022-12-12T04:40:17.348Z,93.00
2022-12-12T04:42:45.318Z,93.10
2022-12-12T04:45:19.065Z,93.30
2022-12-12T04:47:46.431Z,93.20
2022-12-12T04:50:13.235Z,93.00
2022-12-12T04:52:40.064Z,93.00
2022-12-12T04:55:09.385Z,92.90
2022-12-12T04:57:40.924Z,92.80
2022-12-12T05:03:31.584Z,92.90
2022-12-12T05:05:59.749Z,93.00
2022-12-12T05:08:33.534Z,93.20
2022-12-12T05:11:00.826Z,93.00
2022-12-12T05:13:28.919Z,93.10
2022-12-12T05:15:55.967Z,93.20
2022-12-12T05:18:22.788Z,93.10
2022-12-12T05:20:49.852Z,93.20
2022-12-12T05:23:16.697Z,93.00
2022-12-12T05:25:43.515Z,92.80
2022-12-12T05:28:10.356Z,92.70
2022-12-12T05:30:37.243Z,92.90
2022-12-12T05:33:04.122Z,92.90
2022-12-12T05:35:30.982Z,92.70
2022-12-12T05:37:57.827Z,92.90
2022-12-12T05:40:24.609Z,92.90
2022-12-12T05:42:52.028Z,92.70
2022-12-12T05:45:18.863Z,92.70
2022-12-12T05:47:45.662Z,92.80
2022-12-12T05:50:12.503Z,92.60
2022-12-12T05:52:39.385Z,92.80
2022-12-12T05:55:06.476Z,92.70
2022-12-12T05:57:33.577Z,92.70
2022-12-12T06:00:00.468Z,92.80
2022-12-12T06:02:27.390Z,92.80
2022-12-12T06:04:54.310Z,92.70
2022-12-12T06:07:21.129Z,92.80
2022-12-12T06:09:48.291Z,92.90
2022-12-12T06:12:15.097Z,93.00
2022-12-12T06:14:41.956Z,93.00
2022-12-12T06:17:08.831Z,93.00
2022-12-12T06:19:35.788Z,92.80
2022-12-12T06:22:02.605Z,92.90
2022-12-12T06:24:29.464Z,92.90
2022-12-12T06:26:56.259Z,92.90
2022-12-12T06:29:23.026Z,93.00
2022-12-12T06:31:49.884Z,92.90
2022-12-12T06:34:16.747Z,92.90
2022-12-12T06:36:43.643Z,93.00
2022-12-12T06:39:10.592Z,93.00
2022-12-12T06:41:37.416Z,93.20
2022-12-12T06:44:04.556Z,93.20
2022-12-12T06:46:31.502Z,92.90
2022-12-12T06:48:58.628Z,92.80
2022-12-12T06:51:26.556Z,92.80
2022-12-12T06:53:53.482Z,92.80
2022-12-12T06:56:20.951Z,92.70
2022-12-12T06:58:48.124Z,92.80
2022-12-12T07:01:15.487Z,92.70
2022-12-12T07:03:42.399Z,92.80
2022-12-12T07:06:09.227Z,92.30
2022-12-12T07:08:36.088Z,92.70
2022-12-12T07:11:08.993Z,92.40
2022-12-12T07:13:36.349Z,92.60
2022-12-12T07:16:03.302Z,92.40
2022-12-12T07:18:30.211Z,92.60
2022-12-12T07:20:57.044Z,92.50
2022-12-12T07:23:23.911Z,92.60
2022-12-12T07:25:50.787Z,92.50
2022-12-12T07:28:17.720Z,92.60
2022-12-12T07:30:45.475Z,92.60
2022-12-12T07:33:12.797Z,92.60
2022-12-12T07:35:39.590Z,92.70
2022-12-12T07:38:06.524Z,92.70
2022-12-12T07:40:33.453Z,92.30
2022-12-12T07:43:00.571Z,92.50
2022-12-12T07:45:27.424Z,92.10
2022-12-12T07:47:54.431Z,92.10
2022-12-12T07:50:21.473Z,92.30
2022-12-12T07:52:48.325Z,92.40
2022-12-12T07:55:15.532Z,92.40
2022-12-12T07:57:42.588Z,92.50
2022-12-12T08:00:10.249Z,92.30
2022-12-12T08:02:39.889Z,92.40
2022-12-12T08:05:07.090Z,92.40
2022-12-12T08:07:33.963Z,92.60
2022-12-12T08:10:00.823Z,92.60
2022-12-12T08:12:30.741Z,92.40
2022-12-12T08:18:02.153Z,92.20
2022-12-12T08:20:29.456Z,92.10
2022-12-12T08:22:56.275Z,92.10
2022-12-12T08:25:23.136Z,92.10
2022-12-12T08:27:52.228Z,92.10
2022-12-12T08:30:19.212Z,91.90
2022-12-12T08:32:46.004Z,92.00
2022-12-12T08:35:13.210Z,91.60
2022-12-12T08:37:40.398Z,91.60
2022-12-12T08:40:07.738Z,91.90
2022-12-12T08:42:34.525Z,91.50
2022-12-12T08:45:01.337Z,91.50
2022-12-12T08:47:29.188Z,91.30
2022-12-12T08:49:56.151Z,91.10
2022-12-12T08:52:23.003Z,91.20
2022-12-12T08:54:50.128Z,90.70
2022-12-12T08:57:18.433Z,91.00
2022-12-12T08:59:48.759Z,91.20
2022-12-12T09:02:15.663Z,91.10
2022-12-12T09:04:42.581Z,90.90
2022-12-12T09:07:09.439Z,90.90
2022-12-12T09:09:36.310Z,90.90
2022-12-12T09:12:03.171Z,91.00
2022-12-12T09:14:30.032Z,90.80
2022-12-12T09:16:56.914Z,90.70
2022-12-12T09:22:40.288Z,90.80
2022-12-12T09:25:07.295Z,90.70
2022-12-12T09:27:34.153Z,91.20
2022-12-12T09:30:01.005Z,91.00
2022-12-12T09:32:27.907Z,90.80
2022-12-12T09:34:54.778Z,90.90
2022-12-12T09:37:21.600Z,90.70
2022-12-12T09:39:48.483Z,90.50
2022-12-12T09:42:22.933Z,90.30
2022-12-12T09:44:50.427Z,90.10
2022-12-12T09:47:24.691Z,89.80
2022-12-12T09:49:52.594Z,90.10
2022-12-12T09:52:30.673Z,89.90
2022-12-12T09:54:59.053Z,89.90
2022-12-12T09:57:25.901Z,89.00
2022-12-12T10:00:02.253Z,89.40
2022-12-12T10:02:51.783Z,88.80
2022-12-12T10:05:22.194Z,88.70
2022-12-12T10:08:12.136Z,89.90
2022-12-12T10:10:42.857Z,89.00
2022-12-12T10:13:14.893Z,87.80
2022-12-12T10:15:48.459Z,86.10
2022-12-12T10:18:23.432Z,88.10
2022-12-12T10:20:51.567Z,88.90
2022-12-12T10:23:18.414Z,88.50
2022-12-12T10:25:51.176Z,89.00
2022-12-12T10:28:19.169Z,88.90
2022-12-12T10:31:04.647Z,89.00
2022-12-12T10:33:54.583Z,86.50
2022-12-12T10:36:37.379Z,85.30
2022-12-12T10:39:09.370Z,87.20
2022-12-12T10:41:36.223Z,86.00
2022-12-12T10:44:03.067Z,85.50
2022-12-12T10:46:41.829Z,86.60
2022-12-12T10:49:18.975Z,86.50
2022-12-12T10:51:46.658Z,85.20
2022-12-12T10:54:20.531Z,83.70
2022-12-12T10:57:06.417Z,83.80
2022-12-12T10:59:39.896Z,84.30
2022-12-12T11:02:10.936Z,85.60
2022-12-12T11:04:38.035Z,85.10
2022-12-12T11:07:04.945Z,85.40
2022-12-12T11:09:31.811Z,86.50
2022-12-12T11:12:02.249Z,85.50
2022-12-12T11:14:33.378Z,85.10
2022-12-12T11:17:00.267Z,85.60
2022-12-12T11:19:27.458Z,86.30
2022-12-12T11:21:54.448Z,85.20
2022-12-12T11:24:22.278Z,85.80
2022-12-12T11:26:52.159Z,85.80
2022-12-12T11:29:37.499Z,87.00
2022-12-12T11:32:04.548Z,87.20
2022-12-12T11:34:33.938Z,85.10
2022-12-12T11:37:00.976Z,83.50
2022-12-12T11:39:31.046Z,83.50
2022-12-12T11:42:05.050Z,83.50
2022-12-12T11:47:40.982Z,85.00
2022-12-12T11:50:23.130Z,84.50
2022-12-12T11:52:50.408Z,85.80
2022-12-12T11:55:18.489Z,85.60
2022-12-12T11:57:51.374Z,87.10
2022-12-12T12:00:22.144Z,86.30
2022-12-12T12:02:53.892Z,85.20
2022-12-12T12:05:37.624Z,85.10
2022-12-12T12:08:17.041Z,85.20
2022-12-12T12:10:56.202Z,85.60
2022-12-12T12:13:28.828Z,86.70
2022-12-12T12:16:07.682Z,86.90
2022-12-12T12:18:46.571Z,86.80
2022-12-12T12:21:13.924Z,87.20
2022-12-12T12:23:59.699Z,86.30
2022-12-12T12:26:36.938Z,87.70
2022-12-12T12:29:04.735Z,87.10
2022-12-12T12:31:35.089Z,86.90
2022-12-12T12:34:28.019Z,86.60
2022-12-12T12:37:04.085Z,87.00
2022-12-12T12:39:53.961Z,87.90
2022-12-12T12:42:49.393Z,87.60
2022-12-12T12:45:35.443Z,87.70
2022-12-12T12:48:10.217Z,86.50
2022-12-12T12:50:39.178Z,87.50
2022-12-12T12:53:09.123Z,88.30
2022-12-12T12:55:38.387Z,88.80
2022-12-12T12:58:05.994Z,89.00
2022-12-12T13:00:32.957Z,88.40
2022-12-12T13:03:05.580Z,87.90
2022-12-12T13:05:36.825Z,88.40
2022-12-12T13:08:06.854Z,87.10
2022-12-12T13:10:33.794Z,87.90
2022-12-12T13:13:06.947Z,88.00
2022-12-12T13:15:35.179Z,88.00
2022-12-12T13:18:05.959Z,88.50
2022-12-12T13:20:38.572Z,88.20
2022-12-12T13:23:24.488Z,89.70
2022-12-12T13:25:55.608Z,90.10
2022-12-12T13:28:23.721Z,89.50
2022-12-12T13:31:13.314Z,89.40
2022-12-12T13:33:50.909Z,90.00
2022-12-12T13:36:27.626Z,90.10
2022-12-12T13:38:56.831Z,90.10
2022-12-12T13:41:23.681Z,89.90
2022-12-12T13:43:59.716Z,90.00
2022-12-12T13:46:27.470Z,90.10
2022-12-12T13:48:57.423Z,90.10
2022-12-12T13:51:27.541Z,90.10
2022-12-12T13:54:12.056Z,90.20
2022-12-12T13:56:40.716Z,90.20
2022-12-12T13:59:22.954Z,90.30
2022-12-12T14:01:50.488Z,90.30
2022-12-12T14:04:24.608Z,90.10
2022-12-12T14:07:01.037Z,90.20
2022-12-12T14:09:46.539Z,90.40
2022-12-12T14:12:17.607Z,90.40
2022-12-12T14:14:51.469Z,90.50
2022-12-12T14:17:22.325Z,90.60
2022-12-12T14:19:50.254Z,90.70
2022-12-12T14:22:30.073Z,90.90
2022-12-12T14:25:07.621Z,91.00
2022-12-12T14:27:49.560Z,91.20
2022-12-12T14:30:17.838Z,91.30
2022-12-12T14:32:50.223Z,91.20
2022-12-12T14:35:26.968Z,91.40
2022-12-12T14:37:56.767Z,91.50
2022-12-12T14:40:30.855Z,91.40
2022-12-12T14:43:22.031Z,91.70
2022-12-12T14:45:49.718Z,91.60
2022-12-12T14:48:17.106Z,91.50
2022-12-12T14:50:48.312Z,91.40
2022-12-12T14:53:19.315Z,91.20
2022-12-12T14:55:49.916Z,91.40
2022-12-12T14:58:20.588Z,91.30
2022-12-12T15:00:51.631Z,91.50
2022-12-12T15:03:22.891Z,91.50
2022-12-12T15:06:09.797Z,91.40
2022-12-12T15:08:36.681Z,91.70
2022-12-12T15:11:03.538Z,91.60
2022-12-12T15:13:31.431Z,91.60
2022-12-12T15:15:58.252Z,91.80
2022-12-12T15:18:25.106Z,91.80
2022-12-12T15:20:51.909Z,91.90
2022-12-12T15:23:18.916Z,92.20
2022-12-12T15:25:52.944Z,92.20
2022-12-12T15:28:20.393Z,92.20
2022-12-12T15:30:49.418Z,92.20
2022-12-12T15:33:17.581Z,92.30
2022-12-12T15:36:01.127Z,92.30
2022-12-12T15:38:29.056Z,92.30
2022-12-12T15:40:57.108Z,92.20
2022-12-12T15:43:24.707Z,92.20
2022-12-12T15:45:58.603Z,92.20
2022-12-12T15:48:28.300Z,92.20
2022-12-12T15:51:05.240Z,92.20
2022-12-12T15:53:38.912Z,92.20
2022-12-12T15:56:05.840Z,92.20
2022-12-12T15:58:39.407Z,92.20
2022-12-12T16:04:10.026Z,92.30
2022-12-12T16:06:40.556Z,92.30
2022-12-12T16:09:07.406Z,92.60
2022-12-12T16:11:38.586Z,92.70
2022-12-12T16:14:05.911Z,92.80
2022-12-12T16:16:36.998Z,92.90
2022-12-12T16:19:04.371Z,93.10
2022-12-12T16:21:31.281Z,93.10
2022-12-12T16:24:18.477Z,93.00
2022-12-12T16:26:45.350Z,93.20
2022-12-12T16:29:12.156Z,93.30
2022-12-12T16:31:39.029Z,93.30
2022-12-12T16:34:05.913Z,93.30
2022-12-12T16:36:36.994Z,93.30
2022-12-12T16:39:09.276Z,93.40
2022-12-12T16:41:36.104Z,93.50
2022-12-12T16:44:02.992Z,93.30
2022-12-12T16:46:29.796Z,93.50
2022-12-12T16:49:03.452Z,93.40
2022-12-12T16:51:31.021Z,93.40
2022-12-12T16:53:57.863Z,93.40
2022-12-12T16:56:24.971Z,93.30
2022-12-12T16:58:53.451Z,93.40
2022-12-12T17:01:20.635Z,93.40
2022-12-12T17:03:47.541Z,93.40
2022-12-12T17:06:14.408Z,93.50
2022-12-12T17:08:41.569Z,93.60
2022-12-12T17:11:09.368Z,93.60
2022-12-12T17:13:37.730Z,93.60
2022-12-12T17:16:04.811Z,93.60
2022-12-12T17:18:31.971Z,93.70
2022-12-12T17:20:58.845Z,93.70
2022-12-12T17:23:28.600Z,93.70
2022-12-12T17:26:02.444Z,93.70
2022-12-12T17:28:30.903Z,93.70
2022-12-12T17:30:57.748Z,93.70
2022-12-12T17:33:24.649Z,93.50
2022-12-12T17:35:59.029Z,93.50
2022-12-12T17:38:26.323Z,93.50
2022-12-12T17:40:54.090Z,93.70
2022-12-12T17:43:21.156Z,93.50
2022-12-12T17:45:56.482Z,93.50
2022-12-12T17:48:23.919Z,93.50
2022-12-12T17:50:58.125Z,93.50
2022-12-12T17:53:25.233Z,93.50
2022-12-12T17:56:01.086Z,93.60
2022-12-12T17:58:31.557Z,93.60
2022-12-12T18:00:58.827Z,93.60
2022-12-12T18:03:25.755Z,93.60
2022-12-12T18:05:52.884Z,93.60
2022-12-12T18:08:19.744Z,93.60
2022-12-12T18:10:47.980Z,93.60
2022-12-12T18:13:14.862Z,93.50
2022-12-12T18:15:44.454Z,93.50
2022-12-12T18:18:11.945Z,93.70
2022-12-12T18:20:40.003Z,93.70
2022-12-12T18:23:06.881Z,93.70
2022-12-12T18:25:35.274Z,93.80
2022-12-12T18:28:02.102Z,93.80
2022-12-12T18:30:28.963Z,93.90
2022-12-12T18:32:59.761Z,94.10
2022-12-12T18:35:29.808Z,93.90
2022-12-12T18:37:56.669Z,93.90
2022-12-12T18:40:23.544Z,94.00
2022-12-12T18:42:50.843Z,93.90
2022-12-12T18:45:17.798Z,93.90
2022-12-12T18:47:44.904Z,93.90
2022-12-12T18:50:11.990Z,93.80
2022-12-12T18:52:39.159Z,93.80
2022-12-12T18:55:06.203Z,93.80
2022-12-12T18:57:33.217Z,93.80
2022-12-12T19:00:00.504Z,93.60
2022-12-12T19:02:27.427Z,93.50
2022-12-12T19:04:54.336Z,93.60
2022-12-12T19:07:21.681Z,93.40
2022-12-12T19:09:48.529Z,93.50
2022-12-12T19:12:15.361Z,93.50
2022-12-12T19:15:08.315Z,93.40
2022-12-12T19:17:29.065Z,93.40
2022-12-12T19:19:56.046Z,93.60
2022-12-12T19:22:44.503Z,93.70
2022-12-12T19:25:09.950Z,93.60
2022-12-12T19:27:36.796Z,93.60
2022-12-12T19:30:04.112Z,93.50
2022-12-12T19:32:30.908Z,93.30
2022-12-12T19:34:58.937Z,93.30
2022-12-12T19:37:25.870Z,93.20
2022-12-12T19:39:53.060Z,93.20
2022-12-12T19:42:20.139Z,92.90
2022-12-12T19:44:47.012Z,93.00
2022-12-12T19:47:13.882Z,92.90
2022-12-12T19:49:40.819Z,92.90
2022-12-12T19:55:08.652Z,92.80
2022-12-12T19:57:35.574Z,92.90
2022-12-12T20:00:03.600Z,92.60
2022-12-12T20:02:37.238Z,92.50
2022-12-12T20:05:04.267Z,92.50
2022-12-12T20:07:31.076Z,92.60
2022-12-12T20:09:57.904Z,92.70
2022-12-12T20:12:24.722Z,92.70
2022-12-12T20:14:51.563Z,92.60
2022-12-12T20:17:18.635Z,92.50
2022-12-12T20:19:47.416Z,92.20
2022-12-12T20:22:14.267Z,92.30
2022-12-12T20:24:41.151Z,92.10
2022-12-12T20:27:09.028Z,92.20
2022-12-12T20:29:36.116Z,92.10
2022-12-12T20:32:03.185Z,92.10
2022-12-12T20:34:30.115Z,92.30
2022-12-12T20:36:57.136Z,92.50
2022-12-12T20:39:24.974Z,92.10
2022-12-12T20:41:53.733Z,92.40
2022-12-12T20:44:20.810Z,92.20
2022-12-12T20:46:47.614Z,92.10
2022-12-12T20:49:16.018Z,92.10
2022-12-12T20:51:55.289Z,92.00
2022-12-12T20:54:24.494Z,92.10
2022-12-12T20:56:51.867Z,91.90
2022-12-12T20:59:18.707Z,91.70
2022-12-12T21:01:47.489Z,91.70
2022-12-12T21:04:14.780Z,91.80
2022-12-12T21:06:44.487Z,91.80
2022-12-12T21:09:12.390Z,91.70
2022-12-12T21:11:41.911Z,91.60
2022-12-12T21:14:08.818Z,91.60
2022-12-12T21:16:37.113Z,92.00
2022-12-12T21:19:05.015Z,91.80
2022-12-12T21:21:31.958Z,91.90
2022-12-12T21:23:58.817Z,91.90
2022-12-12T21:26:29.213Z,91.90
2022-12-12T21:28:56.595Z,91.70
2022-12-12T21:31:27.550Z,91.60
2022-12-12T21:33:54.443Z,91.60
2022-12-12T21:36:21.688Z,91.60
2022-12-12T21:38:48.561Z,91.70
2022-12-12T21:41:16.165Z,91.60
2022-12-12T21:43:44.534Z,91.70
2022-12-12T21:46:24.178Z,91.70
2022-12-12T21:49:09.821Z,91.60
2022-12-12T21:51:36.713Z,91.80
2022-12-12T21:54:04.353Z,91.70
2022-12-12T21:56:31.293Z,91.70
2022-12-12T21:58:58.319Z,91.60
2022-12-12T22:01:25.236Z,91.60
2022-12-12T22:03:52.113Z,91.50
2022-12-12T22:06:20.219Z,91.60
2022-12-12T22:08:47.044Z,91.60
2022-12-12T22:11:14.397Z,91.40
2022-12-12T22:14:01.237Z,91.40
2022-12-12T22:16:33.451Z,91.30
2022-12-12T22:19:05.974Z,91.40
2022-12-12T22:21:33.226Z,91.40
2022-12-12T22:24:00.117Z,91.40
2022-12-12T22:26:26.991Z,91.40
2022-12-12T22:28:54.754Z,91.70
2022-12-12T22:31:22.112Z,91.80
2022-12-12T22:33:49.062Z,91.70
2022-12-12T22:36:15.904Z,91.60
2022-12-12T22:38:42.779Z,91.50
2022-12-12T22:41:09.978Z,91.40
2022-12-12T22:43:36.814Z,91.60
2022-12-12T22:46:07.174Z,91.60
2022-12-12T22:48:34.290Z,91.50
2022-12-12T22:51:11.068Z,91.50
2022-12-12T22:53:42.535Z,91.60
2022-12-12T22:56:11.432Z,91.70
2022-12-12T22:58:38.262Z,91.70
2022-12-12T23:01:23.230Z,91.60
2022-12-12T23:03:50.139Z,91.80
2022-12-12T23:06:17.783Z,91.80
2022-12-12T23:08:45.060Z,91.80
2022-12-12T23:11:13.213Z,91.80
2022-12-12T23:13:42.759Z,91.70
2022-12-12T23:16:10.539Z,91.70
2022-12-12T23:18:37.723Z,91.80
2022-12-12T23:21:05.315Z,91.90
2022-12-12T23:23:34.186Z,91.70
2022-12-12T23:26:04.141Z,92.00
2022-12-12T23:28:30.996Z,92.00
2022-12-12T23:30:58.331Z,92.10
2022-12-12T23:33:25.415Z,92.00
2022-12-12T23:35:52.303Z,92.10
2022-12-12T23:38:19.624Z,92.10
2022-12-12T23:40:46.429Z,92.10
2022-12-12T23:43:13.270Z,91.90
2022-12-12T23:45:40.187Z,92.10
2022-12-12T23:48:07.471Z,92.10
2022-12-12T23:50:34.330Z,92.10
2022-12-12T23:53:03.984Z,92.10
2022-12-12T23:55:34.453Z,92.10
2022-12-12T23:58:01.290Z,92.20
